createdAt,value
2019-02-20T00:02:23.269Z,14.43
2019-02-20T00:04:52.981Z,13.83
2019-02-20T00:07:23.820Z,13.87
2019-02-20T00:09:53.247Z,13.27
2019-02-20T00:12:23.734Z,12.50
2019-02-20T00:14:53.240Z,13.50
2019-02-20T00:17:22.908Z,13.03
2019-02-20T00:19:52.564Z,13.73
2019-02-20T00:22:23.351Z,14.10
2019-02-20T00:24:52.723Z,12.63
2019-02-20T00:27:23.484Z,14.00
2019-02-20T00:29:54.720Z,14.23
2019-02-20T00:32:24.645Z,13.80
2019-02-20T00:34:54.153Z,13.80
2019-02-20T00:37:23.700Z,13.90
2019-02-20T00:39:54.575Z,13.20
2019-02-20T00:42:26.186Z,14.00
2019-02-20T00:45:04.057Z,14.87
2019-02-20T00:47:53.152Z,13.70
2019-02-20T00:50:23.699Z,14.63
2019-02-20T00:52:58.404Z,14.70
2019-02-20T00:55:30.124Z,14.63
2019-02-20T00:57:59.585Z,13.97
2019-02-20T01:00:30.161Z,14.10
2019-02-20T01:03:00.039Z,12.63
2019-02-20T01:05:31.330Z,12.40
2019-02-20T01:08:00.830Z,12.63
2019-02-20T01:10:30.510Z,13.20
2019-02-20T01:13:00.011Z,13.03
2019-02-20T01:15:31.886Z,13.03
2019-02-20T01:18:02.641Z,11.57
2019-02-20T01:20:32.482Z,11.48
2019-02-20T01:23:02.990Z,11.97
2019-02-20T01:25:32.603Z,11.07
2019-02-20T01:28:03.344Z,10.78
2019-02-20T01:30:33.737Z,11.53
2019-02-20T01:33:06.953Z,11.27
2019-02-20T01:35:38.524Z,10.90
2019-02-20T01:38:09.052Z,10.83
2019-02-20T01:40:38.706Z,10.00
2019-02-20T01:43:09.320Z,10.75
2019-02-20T01:45:39.711Z,10.80
2019-02-20T01:48:09.368Z,10.20
2019-02-20T01:50:38.821Z,11.18
2019-02-20T01:53:10.648Z,10.47
2019-02-20T01:55:39.811Z,10.03
2019-02-20T01:58:10.531Z,10.08
2019-02-20T02:00:39.948Z,9.40
2019-02-20T02:03:09.558Z,9.50
2019-02-20T02:05:40.804Z,10.40
2019-02-20T02:08:10.449Z,9.58
2019-02-20T02:10:40.130Z,10.15
2019-02-20T02:13:10.509Z,9.63
2019-02-20T02:15:41.487Z,10.17
2019-02-20T02:18:11.250Z,10.40
2019-02-20T02:20:41.766Z,9.50
2019-02-20T02:23:19.662Z,9.25
2019-02-20T02:25:42.597Z,9.25
2019-02-20T02:28:16.074Z,9.53
2019-02-20T02:30:47.649Z,9.83
2019-02-20T02:33:17.279Z,9.77
2019-02-20T02:35:48.016Z,9.73
2019-02-20T02:38:18.602Z,9.40
2019-02-20T02:40:48.942Z,9.50
2019-02-20T02:43:19.848Z,9.60
2019-02-20T02:45:49.340Z,10.33
2019-02-20T02:48:18.835Z,10.17
2019-02-20T02:50:48.222Z,9.60
2019-02-20T02:53:17.895Z,9.67
2019-02-20T02:55:49.093Z,10.07
2019-02-20T02:58:19.786Z,9.07
2019-02-20T03:00:54.182Z,10.20
2019-02-20T03:03:26.049Z,10.43
2019-02-20T03:05:57.262Z,9.53
2019-02-20T03:08:26.628Z,10.37
2019-02-20T03:10:56.372Z,10.03
2019-02-20T03:13:25.790Z,9.77
2019-02-20T03:15:55.284Z,10.53
2019-02-20T03:18:24.902Z,10.63
2019-02-20T03:20:54.306Z,10.43
2019-02-20T03:23:23.705Z,10.37
2019-02-20T03:25:53.326Z,10.43
2019-02-20T03:28:22.697Z,10.03
2019-02-20T03:30:54.649Z,11.40
2019-02-20T03:33:25.535Z,11.43
2019-02-20T03:35:54.916Z,12.80
2019-02-20T03:38:30.247Z,13.03
2019-02-20T03:40:55.849Z,13.57
2019-02-20T03:43:25.202Z,13.00
2019-02-20T03:45:56.670Z,14.30
2019-02-20T03:48:26.409Z,13.87
2019-02-20T03:50:55.764Z,16.80
2019-02-20T03:53:28.770Z,16.35
2019-02-20T03:56:00.581Z,17.07
2019-02-20T03:58:33.316Z,16.57
2019-02-20T04:01:02.934Z,16.42
2019-02-20T04:03:34.169Z,17.30
2019-02-20T04:06:03.614Z,16.93
2019-02-20T04:08:34.161Z,17.63
2019-02-20T04:11:03.634Z,18.57
2019-02-20T04:13:33.135Z,19.12
2019-02-20T04:16:02.526Z,18.37
2019-02-20T04:18:33.768Z,19.07
2019-02-20T04:21:03.153Z,18.02
2019-02-20T04:23:32.576Z,18.97
2019-02-20T04:26:02.434Z,18.63
2019-02-20T04:28:33.057Z,18.93
2019-02-20T04:31:02.496Z,18.80
2019-02-20T04:33:31.961Z,18.53
2019-02-20T04:36:01.357Z,18.10
2019-02-20T04:38:30.769Z,18.87
2019-02-20T04:41:02.126Z,18.90
2019-02-20T04:43:32.654Z,18.03
2019-02-20T04:46:03.855Z,17.90
2019-02-20T04:48:33.642Z,17.80
2019-02-20T04:51:03.088Z,16.57
2019-02-20T04:53:32.469Z,17.27
2019-02-20T04:56:03.931Z,17.13
2019-02-20T04:58:33.334Z,16.80
2019-02-20T05:01:02.757Z,17.67
2019-02-20T05:03:34.050Z,17.80
2019-02-20T05:06:03.432Z,20.27
2019-02-20T05:08:34.294Z,18.35
2019-02-20T05:11:03.912Z,16.80
2019-02-20T05:13:33.631Z,19.43
2019-02-20T05:16:03.039Z,17.67
2019-02-20T05:18:33.674Z,16.97
2019-02-20T05:21:03.121Z,17.20
2019-02-20T05:23:33.520Z,17.37
2019-02-20T05:26:04.133Z,18.47
2019-02-20T05:28:33.519Z,18.97
2019-02-20T05:31:04.706Z,18.60
2019-02-20T05:33:35.749Z,17.60
2019-02-20T05:36:05.143Z,18.13
2019-02-20T05:38:34.527Z,17.10
2019-02-20T05:41:04.060Z,17.13
2019-02-20T05:43:33.488Z,18.37
2019-02-20T05:46:02.874Z,16.70
2019-02-20T05:48:32.486Z,17.97
2019-02-20T05:51:02.237Z,17.63
2019-02-20T05:53:33.123Z,16.77
2019-02-20T05:56:02.758Z,18.13
2019-02-20T05:58:32.141Z,17.33
2019-02-20T06:01:01.585Z,18.00
2019-02-20T06:03:31.112Z,17.50
2019-02-20T06:06:00.509Z,16.97
2019-02-20T06:08:29.966Z,17.80
2019-02-20T06:11:02.036Z,18.23
2019-02-20T06:13:31.408Z,18.67
2019-02-20T06:16:00.806Z,18.53
2019-02-20T06:18:30.300Z,17.70
2019-02-20T06:20:59.734Z,18.07
2019-02-20T06:23:32.727Z,18.40
2019-02-20T06:26:03.583Z,18.13
2019-02-20T06:28:33.188Z,18.80
2019-02-20T06:31:02.617Z,17.83
2019-02-20T06:33:32.227Z,19.10
2019-02-20T06:36:01.596Z,18.93
2019-02-20T06:38:31.002Z,18.43
2019-02-20T06:41:00.456Z,18.13
2019-02-20T06:43:29.826Z,20.50
2019-02-20T06:45:59.266Z,22.20
2019-02-20T06:48:30.750Z,19.00
2019-02-20T06:51:01.646Z,20.10
2019-02-20T06:53:31.146Z,18.50
2019-02-20T06:56:00.886Z,20.30
2019-02-20T06:58:31.294Z,21.27
2019-02-20T07:01:02.553Z,19.63
2019-02-20T07:03:35.746Z,22.37
2019-02-20T07:06:41.263Z,21.33
2019-02-20T07:10:07.493Z,21.43
2019-02-20T07:12:51.928Z,19.40
2019-02-20T07:15:53.689Z,21.83
2019-02-20T07:18:58.500Z,21.93
2019-02-20T07:22:00.752Z,20.68
2019-02-20T07:25:03.087Z,23.17
2019-02-20T07:28:00.067Z,21.57
2019-02-20T07:30:29.520Z,21.63
2019-02-20T07:33:00.015Z,22.57
2019-02-20T07:35:29.454Z,21.90
2019-02-20T07:37:58.855Z,20.90
2019-02-20T07:40:28.701Z,23.20
2019-02-20T07:43:00.249Z,21.93
2019-02-20T07:45:31.418Z,22.35
2019-02-20T07:48:00.809Z,22.40
2019-02-20T07:50:30.268Z,20.80
2019-02-20T07:53:00.724Z,20.73
2019-02-20T07:55:31.244Z,21.77
2019-02-20T07:58:02.836Z,22.63
2019-02-20T08:00:32.239Z,22.57
2019-02-20T08:03:01.738Z,20.93
2019-02-20T08:05:32.753Z,21.73
2019-02-20T08:08:02.159Z,20.57
2019-02-20T08:10:31.542Z,21.37
2019-02-20T08:13:03.003Z,22.37
2019-02-20T08:15:32.382Z,22.30
2019-02-20T08:18:03.296Z,20.20
2019-02-20T08:20:34.071Z,21.80
2019-02-20T08:23:03.551Z,23.07
2019-02-20T08:25:32.972Z,21.23
2019-02-20T08:28:02.599Z,21.50
2019-02-20T08:30:32.015Z,20.70
2019-02-20T08:33:03.126Z,21.50
2019-02-20T08:35:35.223Z,21.07
2019-02-20T08:38:04.566Z,20.93
2019-02-20T08:40:34.023Z,20.12
2019-02-20T08:43:08.058Z,21.15
2019-02-20T08:45:37.438Z,20.70
2019-02-20T08:48:06.860Z,20.68
2019-02-20T08:50:36.435Z,19.53
2019-02-20T08:53:05.807Z,21.07
2019-02-20T08:55:36.187Z,19.27
2019-02-20T08:58:06.342Z,20.15
2019-02-20T09:00:38.134Z,19.10
2019-02-20T09:03:07.521Z,20.12
2019-02-20T09:05:37.170Z,20.83
2019-02-20T09:08:08.062Z,19.77
2019-02-20T09:10:37.545Z,19.57
2019-02-20T09:13:09.012Z,19.83
2019-02-20T09:15:38.403Z,20.33
2019-02-20T09:18:07.929Z,21.77
2019-02-20T09:20:37.609Z,20.33
2019-02-20T09:23:10.849Z,19.73
2019-02-20T09:25:41.850Z,20.87
2019-02-20T09:28:11.670Z,20.10
2019-02-20T09:30:41.125Z,21.68
2019-02-20T09:33:10.510Z,22.27
2019-02-20T09:35:40.289Z,20.83
2019-02-20T09:38:10.534Z,20.53
2019-02-20T09:40:42.560Z,22.53
2019-02-20T09:43:12.205Z,22.40
2019-02-20T09:45:43.897Z,23.10
2019-02-20T09:48:12.805Z,21.97
2019-02-20T09:50:42.655Z,22.10
2019-02-20T09:53:12.189Z,23.30
2019-02-20T09:55:50.932Z,22.47
2019-02-20T09:58:14.383Z,22.58
2019-02-20T10:00:44.101Z,23.67
2019-02-20T10:03:13.952Z,24.23
2019-02-20T10:05:45.159Z,23.57
2019-02-20T10:08:14.542Z,23.37
2019-02-20T10:10:47.689Z,24.20
2019-02-20T10:13:18.696Z,24.17
2019-02-20T10:15:49.540Z,26.17
2019-02-20T10:18:19.128Z,25.10
2019-02-20T10:20:48.562Z,24.10
2019-02-20T10:23:20.025Z,25.82
2019-02-20T10:25:50.563Z,27.67
2019-02-20T10:28:21.661Z,25.95
2019-02-20T10:30:53.317Z,27.73
2019-02-20T10:33:23.679Z,26.60
2019-02-20T10:35:54.979Z,25.10
2019-02-20T10:38:27.263Z,26.37
2019-02-20T10:40:56.849Z,24.70
2019-02-20T10:43:26.578Z,25.03
2019-02-20T10:45:58.294Z,25.62
2019-02-20T10:48:29.850Z,26.20
2019-02-20T10:50:59.723Z,24.87
2019-02-20T10:53:29.264Z,25.07
2019-02-20T10:55:58.787Z,27.80
2019-02-20T10:58:28.273Z,27.63
2019-02-20T11:00:57.722Z,25.50
2019-02-20T11:03:29.013Z,26.20
2019-02-20T11:05:58.545Z,25.93
2019-02-20T11:08:28.296Z,24.50
2019-02-20T11:10:59.371Z,24.40
2019-02-20T11:13:29.091Z,25.87
2019-02-20T11:15:58.960Z,23.90
2019-02-20T11:18:28.399Z,23.87
2019-02-20T11:20:57.828Z,24.47
2019-02-20T11:23:28.315Z,24.00
2019-02-20T11:25:57.713Z,24.20
2019-02-20T11:28:28.876Z,24.77
2019-02-20T11:30:59.561Z,24.13
2019-02-20T11:33:29.151Z,24.83
2019-02-20T11:35:58.977Z,26.07
2019-02-20T11:38:30.913Z,24.73
2019-02-20T11:41:00.737Z,25.00
2019-02-20T11:43:30.961Z,24.98
2019-02-20T11:46:00.818Z,26.15
2019-02-20T11:48:30.711Z,25.53
2019-02-20T11:51:01.055Z,25.87
2019-02-20T11:53:37.136Z,26.00
2019-02-20T11:56:04.632Z,26.27
2019-02-20T11:58:35.969Z,27.00
2019-02-20T12:01:06.057Z,25.97
2019-02-20T12:03:36.033Z,29.10
2019-02-20T12:06:05.621Z,26.90
2019-02-20T12:08:36.092Z,26.73
2019-02-20T12:11:05.851Z,27.03
2019-02-20T12:13:38.097Z,27.45
2019-02-20T12:16:09.558Z,30.20
2019-02-20T12:18:39.162Z,29.43
2019-02-20T12:21:08.874Z,27.58
2019-02-20T12:23:38.441Z,27.50
2019-02-20T12:26:07.998Z,28.90
2019-02-20T12:28:37.686Z,31.10
2019-02-20T12:31:08.082Z,31.80
2019-02-20T12:33:37.441Z,30.73
2019-02-20T12:36:07.867Z,30.37
2019-02-20T12:38:37.346Z,32.13
2019-02-20T12:41:08.293Z,32.10
2019-02-20T12:43:41.713Z,31.37
2019-02-20T12:46:14.301Z,33.02
2019-02-20T12:48:43.799Z,34.55
2019-02-20T12:51:14.770Z,33.75
2019-02-20T12:53:44.454Z,31.68
2019-02-20T12:56:14.482Z,34.40
2019-02-20T12:58:54.823Z,35.65
2019-02-20T13:01:24.869Z,35.13
2019-02-20T13:03:56.262Z,35.90
2019-02-20T13:06:25.756Z,34.50
2019-02-20T13:08:56.353Z,37.97
2019-02-20T13:11:26.096Z,39.30
2019-02-20T13:13:56.326Z,39.67
2019-02-20T13:16:26.548Z,37.83
2019-02-20T13:18:58.682Z,40.10
2019-02-20T13:21:30.545Z,40.33
2019-02-20T13:24:02.074Z,39.00
2019-02-20T13:26:32.630Z,40.33
2019-02-20T13:29:02.856Z,39.60
2019-02-20T13:31:32.760Z,39.50
2019-02-20T13:34:05.904Z,36.33
2019-02-20T13:36:35.532Z,35.83
2019-02-20T13:39:06.375Z,35.33
2019-02-20T13:41:36.203Z,36.27
2019-02-20T13:44:06.048Z,34.13
2019-02-20T13:46:36.535Z,36.87
2019-02-20T13:49:06.037Z,33.27
2019-02-20T13:51:37.674Z,33.83
2019-02-20T13:54:07.167Z,33.58
2019-02-20T13:56:38.562Z,34.73
2019-02-20T13:59:09.738Z,31.93
2019-02-20T14:01:41.072Z,30.30
2019-02-20T14:04:10.558Z,29.67
2019-02-20T14:06:40.197Z,29.50
2019-02-20T14:09:09.714Z,32.75
2019-02-20T14:11:43.795Z,30.10
2019-02-20T14:14:14.482Z,29.47
2019-02-20T14:16:45.679Z,28.77
2019-02-20T14:19:15.677Z,28.23
2019-02-20T14:21:45.268Z,30.23
2019-02-20T14:24:15.805Z,27.80
2019-02-20T14:26:45.217Z,28.30
2019-02-20T14:29:14.814Z,29.60
2019-02-20T14:31:44.335Z,28.17
2019-02-20T14:34:14.107Z,27.27
2019-02-20T14:36:43.875Z,28.03
2019-02-20T14:39:13.607Z,27.73
2019-02-20T14:41:45.609Z,27.40
2019-02-20T14:44:15.543Z,27.00
2019-02-20T14:46:45.612Z,26.37
2019-02-20T14:49:16.618Z,27.50
2019-02-20T14:51:46.496Z,27.67
2019-02-20T14:54:15.934Z,27.13
2019-02-20T14:56:48.169Z,28.57
2019-02-20T14:59:17.810Z,28.55
2019-02-20T15:01:49.443Z,28.65
2019-02-20T15:04:19.900Z,27.77
2019-02-20T15:06:50.797Z,29.30
2019-02-20T15:09:22.704Z,28.40
2019-02-20T15:11:52.922Z,29.07
2019-02-20T15:14:24.375Z,28.50
2019-02-20T15:17:01.091Z,27.07
2019-02-20T15:19:31.125Z,26.37
2019-02-20T15:22:02.237Z,27.02
2019-02-20T15:24:32.664Z,26.20
2019-02-20T15:27:03.601Z,26.07
2019-02-20T15:29:33.322Z,25.10
2019-02-20T15:32:02.929Z,24.87
2019-02-20T15:34:32.526Z,24.83
2019-02-20T15:37:01.982Z,24.17
2019-02-20T15:39:32.980Z,24.00
2019-02-20T15:42:05.099Z,22.73
2019-02-20T15:44:37.596Z,23.10
2019-02-20T15:47:07.376Z,21.60
2019-02-20T15:49:37.906Z,21.17
2019-02-20T15:52:10.408Z,20.50
2019-02-20T15:54:46.180Z,19.00
2019-02-20T15:57:17.666Z,20.68
2019-02-20T15:59:52.690Z,19.73
2019-02-20T16:02:22.322Z,17.52
2019-02-20T16:04:54.599Z,16.60
2019-02-20T16:07:25.498Z,17.37
2019-02-20T16:09:57.586Z,17.10
2019-02-20T16:12:29.151Z,16.27
2019-02-20T16:15:02.035Z,17.40
2019-02-20T16:17:33.496Z,16.37
2019-02-20T16:20:03.236Z,15.17
2019-02-20T16:22:34.543Z,14.60
2019-02-20T16:25:04.073Z,13.37
2019-02-20T16:27:37.418Z,12.63
2019-02-20T16:30:07.491Z,12.37
2019-02-20T16:32:37.177Z,11.90
2019-02-20T16:35:07.822Z,11.65
2019-02-20T16:37:43.433Z,11.22
2019-02-20T16:40:16.458Z,10.77
2019-02-20T16:42:45.837Z,9.53
2019-02-20T16:45:24.519Z,9.03
2019-02-20T16:47:54.749Z,9.27
2019-02-20T16:50:24.142Z,10.03
2019-02-20T16:52:53.736Z,9.10
2019-02-20T16:55:23.326Z,8.80
2019-02-20T16:57:58.250Z,9.07
2019-02-20T17:00:30.742Z,8.73
2019-02-20T17:03:00.447Z,7.97
2019-02-20T17:05:32.636Z,8.10
2019-02-20T17:08:02.011Z,7.37
2019-02-20T17:10:38.183Z,7.47
2019-02-20T17:13:07.686Z,6.87
2019-02-20T17:15:41.361Z,6.50
2019-02-20T17:18:16.363Z,6.73
2019-02-20T17:20:45.760Z,5.70
2019-02-20T17:23:19.692Z,5.47
2019-02-20T17:25:51.670Z,6.50
2019-02-20T17:28:24.197Z,5.83
2019-02-20T17:30:55.419Z,6.13
2019-02-20T17:33:25.917Z,5.87
2019-02-20T17:35:56.837Z,5.63
2019-02-20T17:38:29.080Z,5.90
2019-02-20T17:41:03.868Z,5.50
2019-02-20T17:43:32.589Z,5.50
2019-02-20T17:46:03.688Z,5.83
2019-02-20T17:48:36.084Z,6.53
2019-02-20T17:51:06.742Z,6.78
2019-02-20T17:53:38.844Z,5.80
2019-02-20T17:56:11.059Z,6.33
2019-02-20T17:58:42.731Z,6.40
2019-02-20T18:01:16.618Z,6.00
2019-02-20T18:03:47.738Z,5.60
2019-02-20T18:06:17.127Z,6.10
2019-02-20T18:08:47.463Z,5.93
2019-02-20T18:11:17.047Z,5.92
2019-02-20T18:13:46.437Z,5.70
2019-02-20T18:16:17.312Z,6.27
2019-02-20T18:18:48.136Z,5.80
2019-02-20T18:21:18.632Z,6.08
2019-02-20T18:23:48.078Z,5.75
2019-02-20T18:26:19.787Z,6.30
2019-02-20T18:28:49.295Z,5.65
2019-02-20T18:31:18.646Z,6.03
2019-02-20T18:33:48.259Z,4.92
2019-02-20T18:36:17.803Z,5.43
2019-02-20T18:38:49.605Z,5.97
2019-02-20T18:41:21.284Z,6.65
2019-02-20T18:43:50.696Z,5.80
2019-02-20T18:46:20.075Z,6.33
2019-02-20T18:48:49.726Z,7.12
2019-02-20T18:51:19.099Z,6.40
2019-02-20T18:53:49.954Z,6.90
2019-02-20T18:56:21.757Z,6.55
2019-02-20T18:58:50.584Z,6.53
2019-02-20T19:01:21.421Z,6.17
2019-02-20T19:03:50.957Z,6.20
2019-02-20T19:06:23.273Z,7.33
2019-02-20T19:09:04.398Z,6.23
2019-02-20T19:11:56.505Z,6.27
2019-02-20T19:14:44.087Z,6.20
2019-02-20T19:18:08.208Z,5.97
2019-02-20T19:21:09.727Z,6.87
2019-02-20T19:24:10.731Z,6.53
2019-02-20T19:27:08.129Z,6.97
2019-02-20T19:30:15.906Z,6.60
2019-02-20T19:33:11.547Z,6.20
2019-02-20T19:36:22.417Z,6.55
2019-02-20T19:39:24.066Z,6.20
2019-02-20T19:42:57.999Z,6.33
2019-02-20T19:45:44.081Z,6.90
2019-02-20T19:48:44.245Z,6.80
2019-02-20T19:52:03.617Z,6.72
2019-02-20T19:54:49.183Z,6.60
2019-02-20T19:58:05.794Z,6.83
2019-02-20T20:01:21.221Z,7.10
2019-02-20T20:04:21.141Z,7.13
2019-02-20T20:07:43.886Z,7.13
2019-02-20T20:11:03.299Z,7.05
2019-02-20T20:13:47.382Z,7.20
2019-02-20T20:17:10.161Z,7.00
2019-02-20T20:19:57.168Z,7.33
2019-02-20T20:23:00.303Z,7.67
2019-02-20T20:26:21.277Z,7.43
2019-02-20T20:29:39.854Z,7.80
2019-02-20T20:32:33.613Z,7.30
2019-02-20T20:35:27.471Z,8.03
2019-02-20T20:38:21.550Z,7.93
2019-02-20T20:41:27.107Z,7.43
2019-02-20T20:44:34.694Z,8.47
2019-02-20T20:47:32.448Z,7.43
2019-02-20T20:50:38.309Z,8.67
2019-02-20T20:53:50.562Z,8.33
2019-02-20T20:56:33.946Z,8.00
2019-02-20T20:59:40.380Z,8.37
2019-02-20T21:02:46.182Z,8.23
2019-02-20T21:06:08.930Z,8.40
2019-02-20T21:08:55.649Z,8.48
2019-02-20T21:11:51.010Z,9.53
2019-02-20T21:15:13.835Z,8.00
2019-02-20T21:18:32.919Z,9.35
2019-02-20T21:21:16.737Z,8.30
2019-02-20T21:24:54.684Z,9.33
2019-02-20T21:27:44.497Z,9.10
2019-02-20T21:31:07.203Z,8.95
2019-02-20T21:34:12.235Z,9.87
2019-02-20T21:37:10.813Z,10.00
2019-02-20T21:40:16.989Z,9.53
2019-02-20T21:43:20.582Z,9.50
2019-02-20T21:46:40.303Z,10.00
2019-02-20T21:49:36.434Z,10.33
2019-02-20T21:52:31.928Z,9.83
2019-02-20T21:55:55.266Z,11.10
2019-02-20T21:59:04.165Z,10.77
2019-02-20T22:02:18.805Z,10.47
2019-02-20T22:04:54.553Z,10.50
2019-02-20T22:08:06.804Z,11.70
2019-02-20T22:11:04.380Z,11.50
2019-02-20T22:14:17.601Z,11.57
2019-02-20T22:17:11.239Z,12.13
2019-02-20T22:20:21.390Z,12.05
2019-02-20T22:23:47.186Z,11.93
2019-02-20T22:26:59.308Z,12.90
2019-02-20T22:29:50.216Z,11.70
2019-02-20T22:33:07.059Z,12.10
2019-02-20T22:36:01.767Z,12.68
2019-02-20T22:39:01.147Z,12.23
2019-02-20T22:42:10.727Z,13.17
2019-02-20T22:45:19.858Z,12.68
2019-02-20T22:48:27.932Z,11.93
2019-02-20T22:51:31.295Z,12.63
2019-02-20T22:54:24.305Z,12.57
2019-02-20T22:57:31.215Z,12.70
2019-02-20T23:00:41.118Z,12.83
2019-02-20T23:03:53.189Z,12.57
2019-02-20T23:07:04.405Z,13.43
2019-02-20T23:09:59.066Z,12.83
2019-02-20T23:12:53.155Z,12.40
2019-02-20T23:15:26.048Z,13.43
2019-02-20T23:17:55.393Z,14.43
2019-02-20T23:20:26.286Z,13.30
2019-02-20T23:22:57.115Z,13.83
2019-02-20T23:25:26.599Z,14.07
2019-02-20T23:27:57.979Z,13.27
2019-02-20T23:30:27.373Z,14.47
2019-02-20T23:32:57.962Z,14.40
2019-02-20T23:35:29.104Z,14.07
2019-02-20T23:37:58.899Z,13.77
2019-02-20T23:40:28.276Z,13.87
2019-02-20T23:42:57.899Z,14.83
2019-02-20T23:45:27.394Z,14.40
2019-02-20T23:47:56.836Z,15.23
2019-02-20T23:50:26.537Z,14.50
2019-02-20T23:52:55.939Z,14.45
2019-02-20T23:55:25.352Z,15.23
2019-02-20T23:57:55.020Z,15.07
